sensor_id;sensor_type;location;lat;lon;timestamp;pressure;altitude;pressure_sealevel;temperature;humidity
11345;BME280;5727;42.600;23.028;2022-12-18T00:02:02;94383.41;;;8.34;100.00
11345;BME280;5727;42.600;23.028;2022-12-18T00:04:29;94378.56;;;8.41;100.00
11345;BME280;5727;42.600;23.028;2022-12-18T00:06:57;94384.94;;;8.49;100.00
11345;BME280;5727;42.600;23.028;2022-12-18T00:09:24;94387.16;;;8.42;100.00
11345;BME280;5727;42.600;23.028;2022-12-18T00:11:51;94397.84;;;8.32;100.00
11345;BME280;5727;42.600;23.028;2022-12-18T00:14:17;94400.81;;;8.39;100.00
11345;BME280;5727;42.600;23.028;2022-12-18T00:16:45;94396.59;;;8.29;100.00
11345;BME280;5727;42.600;23.028;2022-12-18T00:19:13;94398.91;;;8.30;100.00
11345;BME280;5727;42.600;23.028;2022-12-18T00:21:40;94404.41;;;8.29;100.00
11345;BME280;5727;42.600;23.028;2022-12-18T00:24:09;94409.16;;;8.27;100.00
11345;BME280;5727;42.600;23.028;2022-12-18T00:26:37;94403.47;;;8.25;100.00
11345;BME280;5727;42.600;23.028;2022-12-18T00:29:06;94413.91;;;8.25;100.00
11345;BME280;5727;42.600;23.028;2022-12-18T00:31:34;94418.81;;;8.13;100.00
11345;BME280;5727;42.600;23.028;2022-12-18T00:34:01;94425.59;;;8.14;100.00
11345;BME280;5727;42.600;23.028;2022-12-18T00:36:29;94423.28;;;7.99;100.00
11345;BME280;5727;42.600;23.028;2022-12-18T00:38:57;94424.53;;;7.74;100.00
11345;BME280;5727;42.600;23.028;2022-12-18T00:41:26;94426.38;;;7.60;100.00
11345;BME280;5727;42.600;23.028;2022-12-18T00:44:11;94428.09;;;7.37;100.00
11345;BME280;5727;42.600;23.028;2022-12-18T00:46:38;94430.09;;;7.27;100.00
11345;BME280;5727;42.600;23.028;2022-12-18T00:49:05;94423.72;;;7.33;100.00
11345;BME280;5727;42.600;23.028;2022-12-18T00:51:32;94426.91;;;7.43;100.00
11345;BME280;5727;42.600;23.028;2022-12-18T00:53:59;94428.56;;;7.53;100.00
11345;BME280;5727;42.600;23.028;2022-12-18T00:56:27;94429.75;;;7.47;100.00
11345;BME280;5727;42.600;23.028;2022-12-18T00:58:54;94434.25;;;7.41;100.00
11345;BME280;5727;42.600;23.028;2022-12-18T01:01:21;94438.41;;;7.43;100.00
11345;BME280;5727;42.600;23.028;2022-12-18T01:03:47;94433.31;;;7.51;100.00
11345;BME280;5727;42.600;23.028;2022-12-18T01:06:15;94438.09;;;7.30;100.00
11345;BME280;5727;42.600;23.028;2022-12-18T01:08:42;94432.84;;;7.17;100.00
11345;BME280;5727;42.600;23.028;2022-12-18T01:11:10;94438.06;;;7.17;100.00
11345;BME280;5727;42.600;23.028;2022-12-18T01:13:39;94440.78;;;7.12;100.00
11345;BME280;5727;42.600;23.028;2022-12-18T01:16:07;94441.13;;;7.05;100.00
11345;BME280;5727;42.600;23.028;2022-12-18T01:18:34;94445.34;;;7.01;100.00
11345;BME280;5727;42.600;23.028;2022-12-18T01:21:05;94444.47;;;6.92;100.00
11345;BME280;5727;42.600;23.028;2022-12-18T01:23:32;94445.28;;;6.74;100.00
11345;BME280;5727;42.600;23.028;2022-12-18T01:26:04;94445.81;;;6.71;100.00
11345;BME280;5727;42.600;23.028;2022-12-18T01:28:31;94446.47;;;6.44;100.00
11345;BME280;5727;42.600;23.028;2022-12-18T01:31:09;94440.00;;;6.61;100.00
11345;BME280;5727;42.600;23.028;2022-12-18T01:33:36;94446.75;;;6.62;100.00
11345;BME280;5727;42.600;23.028;2022-12-18T01:36:03;94448.91;;;6.36;100.00
11345;BME280;5727;42.600;23.028;2022-12-18T01:38:29;94441.47;;;6.48;100.00
11345;BME280;5727;42.600;23.028;2022-12-18T01:40:57;94461.59;;;6.61;100.00
11345;BME280;5727;42.600;23.028;2022-12-18T01:43:42;94464.63;;;6.68;100.00
11345;BME280;5727;42.600;23.028;2022-12-18T01:46:11;94463.06;;;6.48;100.00
11345;BME280;5727;42.600;23.028;2022-12-18T01:48:39;94469.06;;;6.49;100.00
11345;BME280;5727;42.600;23.028;2022-12-18T01:51:08;94471.31;;;6.56;100.00
11345;BME280;5727;42.600;23.028;2022-12-18T01:53:36;94466.94;;;6.51;100.00
11345;BME280;5727;42.600;23.028;2022-12-18T01:56:04;94479.75;;;6.66;100.00
11345;BME280;5727;42.600;23.028;2022-12-18T01:58:37;94469.66;;;6.78;100.00
11345;BME280;5727;42.600;23.028;2022-12-18T02:01:06;94477.72;;;6.82;100.00
11345;BME280;5727;42.600;23.028;2022-12-18T02:03:34;94478.41;;;6.87;100.00
11345;BME280;5727;42.600;23.028;2022-12-18T02:06:06;94470.88;;;6.86;100.00
11345;BME280;5727;42.600;23.028;2022-12-18T02:08:43;94482.00;;;6.91;100.00
11345;BME280;5727;42.600;23.028;2022-12-18T02:11:18;94485.31;;;6.97;100.00
11345;BME280;5727;42.600;23.028;2022-12-18T02:13:53;94489.03;;;6.91;100.00
11345;BME280;5727;42.600;23.028;2022-12-18T02:16:30;94486.56;;;6.81;100.00
11345;BME280;5727;42.600;23.028;2022-12-18T02:19:08;94483.19;;;6.80;100.00
11345;BME280;5727;42.600;23.028;2022-12-18T02:21:49;94482.44;;;6.80;100.00
11345;BME280;5727;42.600;23.028;2022-12-18T02:24:28;94484.38;;;6.69;100.00
11345;BME280;5727;42.600;23.028;2022-12-18T02:27:00;94488.19;;;6.58;100.00
11345;BME280;5727;42.600;23.028;2022-12-18T02:29:31;94493.31;;;6.44;100.00
11345;BME280;5727;42.600;23.028;2022-12-18T02:31:59;94488.72;;;6.36;100.00
11345;BME280;5727;42.600;23.028;2022-12-18T02:34:29;94492.03;;;6.42;100.00
11345;BME280;5727;42.600;23.028;2022-12-18T02:36:58;94494.44;;;6.38;100.00
11345;BME280;5727;42.600;23.028;2022-12-18T02:39:29;94498.84;;;6.38;100.00
11345;BME280;5727;42.600;23.028;2022-12-18T02:41:59;94504.63;;;6.35;100.00
11345;BME280;5727;42.600;23.028;2022-12-18T02:44:27;94497.75;;;6.44;100.00
11345;BME280;5727;42.600;23.028;2022-12-18T02:46:54;94511.75;;;6.48;100.00
11345;BME280;5727;42.600;23.028;2022-12-18T02:49:26;94513.16;;;6.59;100.00
11345;BME280;5727;42.600;23.028;2022-12-18T02:52:04;94514.09;;;6.68;100.00
11345;BME280;5727;42.600;23.028;2022-12-18T02:54:51;94512.13;;;6.79;100.00
11345;BME280;5727;42.600;23.028;2022-12-18T02:57:32;94518.31;;;6.64;100.00
11345;BME280;5727;42.600;23.028;2022-12-18T03:00:04;94523.09;;;6.76;100.00
11345;BME280;5727;42.600;23.028;2022-12-18T03:02:37;94526.69;;;6.61;100.00
11345;BME280;5727;42.600;23.028;2022-12-18T03:05:10;94524.22;;;6.51;100.00
11345;BME280;5727;42.600;23.028;2022-12-18T03:07:43;94529.34;;;6.37;100.00
11345;BME280;5727;42.600;23.028;2022-12-18T03:10:15;94530.88;;;6.38;100.00
11345;BME280;5727;42.600;23.028;2022-12-18T03:12:47;94526.84;;;6.27;100.00
11345;BME280;5727;42.600;23.028;2022-12-18T03:15:20;94539.28;;;6.30;100.00
11345;BME280;5727;42.600;23.028;2022-12-18T03:17:52;94539.75;;;6.37;100.00
11345;BME280;5727;42.600;23.028;2022-12-18T03:20:23;94544.16;;;6.37;100.00
11345;BME280;5727;42.600;23.028;2022-12-18T03:22:56;94545.50;;;6.34;100.00
11345;BME280;5727;42.600;23.028;2022-12-18T03:25:26;94557.25;;;6.32;100.00
11345;BME280;5727;42.600;23.028;2022-12-18T03:27:58;94557.34;;;6.22;100.00
11345;BME280;5727;42.600;23.028;2022-12-18T03:30:29;94554.03;;;6.16;100.00
11345;BME280;5727;42.600;23.028;2022-12-18T03:33:02;94560.66;;;6.04;100.00
11345;BME280;5727;42.600;23.028;2022-12-18T03:35:35;94560.22;;;5.97;100.00
11345;BME280;5727;42.600;23.028;2022-12-18T03:38:03;94573.59;;;5.85;100.00
11345;BME280;5727;42.600;23.028;2022-12-18T03:40:36;94573.53;;;5.90;100.00
11345;BME280;5727;42.600;23.028;2022-12-18T03:43:10;94581.03;;;5.97;100.00
11345;BME280;5727;42.600;23.028;2022-12-18T03:45:48;94582.03;;;6.01;100.00
11345;BME280;5727;42.600;23.028;2022-12-18T03:48:20;94576.41;;;5.89;100.00
11345;BME280;5727;42.600;23.028;2022-12-18T03:50:56;94598.81;;;5.85;100.00
11345;BME280;5727;42.600;23.028;2022-12-18T03:53:31;94589.66;;;5.92;100.00
11345;BME280;5727;42.600;23.028;2022-12-18T03:56:00;94591.66;;;6.00;100.00
11345;BME280;5727;42.600;23.028;2022-12-18T03:58:31;94595.84;;;5.96;100.00
11345;BME280;5727;42.600;23.028;2022-12-18T04:01:02;94600.78;;;5.98;100.00
11345;BME280;5727;42.600;23.028;2022-12-18T04:03:31;94591.94;;;5.99;100.00
11345;BME280;5727;42.600;23.028;2022-12-18T04:05:59;94599.09;;;6.12;100.00
11345;BME280;5727;42.600;23.028;2022-12-18T04:08:27;94600.00;;;6.26;100.00
11345;BME280;5727;42.600;23.028;2022-12-18T04:10:54;94603.53;;;6.35;100.00
11345;BME280;5727;42.600;23.028;2022-12-18T04:13:22;94605.56;;;6.38;100.00
11345;BME280;5727;42.600;23.028;2022-12-18T04:15:50;94608.94;;;6.38;100.00
11345;BME280;5727;42.600;23.028;2022-12-18T04:18:18;94608.13;;;6.43;100.00
11345;BME280;5727;42.600;23.028;2022-12-18T04:20:45;94617.16;;;6.51;100.00
11345;BME280;5727;42.600;23.028;2022-12-18T04:23:11;94615.84;;;6.53;100.00
11345;BME280;5727;42.600;23.028;2022-12-18T04:25:38;94612.38;;;6.58;100.00
11345;BME280;5727;42.600;23.028;2022-12-18T04:28:05;94623.50;;;6.63;100.00
11345;BME280;5727;42.600;23.028;2022-12-18T04:30:31;94622.47;;;6.64;100.00
11345;BME280;5727;42.600;23.028;2022-12-18T04:32:59;94627.22;;;6.57;100.00
11345;BME280;5727;42.600;23.028;2022-12-18T04:35:26;94627.25;;;6.33;100.00
11345;BME280;5727;42.600;23.028;2022-12-18T04:37:53;94633.16;;;6.39;100.00
11345;BME280;5727;42.600;23.028;2022-12-18T04:40:19;94636.97;;;6.46;100.00
11345;BME280;5727;42.600;23.028;2022-12-18T04:42:46;94633.75;;;6.31;100.00
11345;BME280;5727;42.600;23.028;2022-12-18T04:45:13;94638.88;;;6.41;100.00
11345;BME280;5727;42.600;23.028;2022-12-18T04:47:40;94642.47;;;6.45;100.00
11345;BME280;5727;42.600;23.028;2022-12-18T04:50:08;94634.75;;;6.35;100.00
11345;BME280;5727;42.600;23.028;2022-12-18T04:52:36;94645.91;;;6.12;100.00
11345;BME280;5727;42.600;23.028;2022-12-18T04:55:03;94644.75;;;6.23;100.00
11345;BME280;5727;42.600;23.028;2022-12-18T04:57:29;94652.19;;;6.11;100.00
11345;BME280;5727;42.600;23.028;2022-12-18T04:59:56;94657.31;;;5.82;100.00
11345;BME280;5727;42.600;23.028;2022-12-18T05:02:23;94659.16;;;5.82;100.00
11345;BME280;5727;42.600;23.028;2022-12-18T05:04:49;94668.75;;;5.86;100.00
11345;BME280;5727;42.600;23.028;2022-12-18T05:07:18;94674.69;;;5.92;100.00
11345;BME280;5727;42.600;23.028;2022-12-18T05:09:44;94680.09;;;6.00;100.00
11345;BME280;5727;42.600;23.028;2022-12-18T05:12:11;94677.72;;;6.04;100.00
11345;BME280;5727;42.600;23.028;2022-12-18T05:14:38;94681.38;;;6.03;100.00
11345;BME280;5727;42.600;23.028;2022-12-18T05:17:04;94689.84;;;5.85;100.00
11345;BME280;5727;42.600;23.028;2022-12-18T05:19:31;94679.94;;;5.87;100.00
11345;BME280;5727;42.600;23.028;2022-12-18T05:21:58;94695.53;;;5.87;100.00
11345;BME280;5727;42.600;23.028;2022-12-18T05:24:26;94701.84;;;5.71;100.00
11345;BME280;5727;42.600;23.028;2022-12-18T05:26:52;94701.06;;;5.75;100.00
11345;BME280;5727;42.600;23.028;2022-12-18T05:29:19;94711.19;;;5.77;100.00
11345;BME280;5727;42.600;23.028;2022-12-18T05:31:46;94717.22;;;5.72;100.00
11345;BME280;5727;42.600;23.028;2022-12-18T05:34:13;94714.06;;;5.75;100.00
11345;BME280;5727;42.600;23.028;2022-12-18T05:36:39;94722.09;;;5.84;100.00
11345;BME280;5727;42.600;23.028;2022-12-18T05:39:06;94719.47;;;5.89;100.00
11345;BME280;5727;42.600;23.028;2022-12-18T05:41:34;94731.97;;;5.82;100.00
11345;BME280;5727;42.600;23.028;2022-12-18T05:44:01;94735.69;;;5.66;100.00
11345;BME280;5727;42.600;23.028;2022-12-18T05:46:28;94729.53;;;5.56;100.00
11345;BME280;5727;42.600;23.028;2022-12-18T05:48:55;94736.25;;;5.57;100.00
11345;BME280;5727;42.600;23.028;2022-12-18T05:51:22;94744.84;;;5.58;100.00
11345;BME280;5727;42.600;23.028;2022-12-18T05:53:49;94749.22;;;5.68;100.00
11345;BME280;5727;42.600;23.028;2022-12-18T05:56:17;94746.13;;;5.61;100.00
11345;BME280;5727;42.600;23.028;2022-12-18T05:58:46;94746.66;;;5.57;100.00
11345;BME280;5727;42.600;23.028;2022-12-18T06:01:15;94760.16;;;5.65;100.00
11345;BME280;5727;42.600;23.028;2022-12-18T06:03:43;94754.38;;;5.73;100.00
11345;BME280;5727;42.600;23.028;2022-12-18T06:06:14;94759.84;;;5.71;100.00
11345;BME280;5727;42.600;23.028;2022-12-18T06:08:41;94760.66;;;5.67;100.00
11345;BME280;5727;42.600;23.028;2022-12-18T06:11:08;94759.09;;;5.66;100.00
11345;BME280;5727;42.600;23.028;2022-12-18T06:13:34;94767.34;;;5.78;100.00
11345;BME280;5727;42.600;23.028;2022-12-18T06:16:03;94771.50;;;5.79;100.00
11345;BME280;5727;42.600;23.028;2022-12-18T06:18:31;94765.53;;;5.78;100.00
11345;BME280;5727;42.600;23.028;2022-12-18T06:20:59;94758.50;;;5.79;100.00
11345;BME280;5727;42.600;23.028;2022-12-18T06:23:26;94767.59;;;5.81;100.00
11345;BME280;5727;42.600;23.028;2022-12-18T06:25:53;94773.06;;;5.85;100.00
11345;BME280;5727;42.600;23.028;2022-12-18T06:28:20;94774.06;;;5.89;100.00
11345;BME280;5727;42.600;23.028;2022-12-18T06:30:47;94773.28;;;5.88;100.00
11345;BME280;5727;42.600;23.028;2022-12-18T06:33:16;94779.13;;;5.65;100.00
11345;BME280;5727;42.600;23.028;2022-12-18T06:35:43;94783.09;;;5.52;100.00
11345;BME280;5727;42.600;23.028;2022-12-18T06:38:09;94795.78;;;5.64;100.00
11345;BME280;5727;42.600;23.028;2022-12-18T06:40:37;94800.94;;;5.74;100.00
11345;BME280;5727;42.600;23.028;2022-12-18T06:43:03;94794.91;;;5.84;100.00
11345;BME280;5727;42.600;23.028;2022-12-18T06:45:30;94804.28;;;5.80;100.00
11345;BME280;5727;42.600;23.028;2022-12-18T06:47:57;94800.63;;;5.86;100.00
11345;BME280;5727;42.600;23.028;2022-12-18T06:50:25;94813.09;;;5.89;100.00
11345;BME280;5727;42.600;23.028;2022-12-18T06:52:52;94806.31;;;5.93;100.00
11345;BME280;5727;42.600;23.028;2022-12-18T06:55:18;94809.88;;;6.02;100.00
11345;BME280;5727;42.600;23.028;2022-12-18T06:57:45;94808.75;;;6.13;100.00
11345;BME280;5727;42.600;23.028;2022-12-18T07:00:13;94809.75;;;6.22;100.00
11345;BME280;5727;42.600;23.028;2022-12-18T07:02:39;94819.94;;;6.13;100.00
11345;BME280;5727;42.600;23.028;2022-12-18T07:05:07;94818.88;;;6.19;100.00
11345;BME280;5727;42.600;23.028;2022-12-18T07:07:35;94814.47;;;6.20;100.00
11345;BME280;5727;42.600;23.028;2022-12-18T07:10:02;94824.31;;;6.23;100.00
11345;BME280;5727;42.600;23.028;2022-12-18T07:12:29;94825.13;;;6.18;100.00
11345;BME280;5727;42.600;23.028;2022-12-18T07:14:55;94818.31;;;6.22;100.00
11345;BME280;5727;42.600;23.028;2022-12-18T07:17:22;94830.25;;;6.33;100.00
11345;BME280;5727;42.600;23.028;2022-12-18T07:19:49;94832.78;;;6.38;100.00
11345;BME280;5727;42.600;23.028;2022-12-18T07:22:16;94831.78;;;6.34;100.00
11345;BME280;5727;42.600;23.028;2022-12-18T07:24:44;94836.69;;;6.36;100.00
11345;BME280;5727;42.600;23.028;2022-12-18T07:27:13;94835.13;;;6.40;100.00
11345;BME280;5727;42.600;23.028;2022-12-18T07:29:39;94844.50;;;6.36;100.00
11345;BME280;5727;42.600;23.028;2022-12-18T07:32:06;94838.53;;;5.92;100.00
11345;BME280;5727;42.600;23.028;2022-12-18T07:34:34;94834.53;;;5.55;100.00
11345;BME280;5727;42.600;23.028;2022-12-18T07:37:00;94841.69;;;5.10;100.00
11345;BME280;5727;42.600;23.028;2022-12-18T07:39:27;94838.84;;;5.06;100.00
11345;BME280;5727;42.600;23.028;2022-12-18T07:41:55;94840.13;;;5.24;100.00
11345;BME280;5727;42.600;23.028;2022-12-18T07:44:38;94844.97;;;5.50;100.00
11345;BME280;5727;42.600;23.028;2022-12-18T07:47:05;94844.34;;;5.69;100.00
11345;BME280;5727;42.600;23.028;2022-12-18T07:49:32;94845.59;;;5.86;100.00
11345;BME280;5727;42.600;23.028;2022-12-18T07:51:59;94838.03;;;5.95;100.00
11345;BME280;5727;42.600;23.028;2022-12-18T07:54:27;94845.88;;;5.85;100.00
11345;BME280;5727;42.600;23.028;2022-12-18T07:56:55;94850.00;;;5.91;100.00
11345;BME280;5727;42.600;23.028;2022-12-18T07:59:21;94854.47;;;5.75;100.00
11345;BME280;5727;42.600;23.028;2022-12-18T08:01:48;94851.19;;;5.49;100.00
11345;BME280;5727;42.600;23.028;2022-12-18T08:04:15;94854.34;;;5.41;100.00
11345;BME280;5727;42.600;23.028;2022-12-18T08:06:42;94858.03;;;5.25;100.00
11345;BME280;5727;42.600;23.028;2022-12-18T08:09:09;94862.66;;;5.38;100.00
11345;BME280;5727;42.600;23.028;2022-12-18T08:11:36;94869.91;;;5.51;100.00
11345;BME280;5727;42.600;23.028;2022-12-18T08:14:04;94873.22;;;5.72;100.00
11345;BME280;5727;42.600;23.028;2022-12-18T08:16:31;94877.09;;;5.85;100.00
11345;BME280;5727;42.600;23.028;2022-12-18T08:18:58;94883.81;;;5.91;100.00
11345;BME280;5727;42.600;23.028;2022-12-18T08:21:26;94887.53;;;5.65;100.00
11345;BME280;5727;42.600;23.028;2022-12-18T08:23:54;94892.84;;;5.29;100.00
11345;BME280;5727;42.600;23.028;2022-12-18T08:26:22;94890.28;;;5.04;100.00
11345;BME280;5727;42.600;23.028;2022-12-18T08:28:50;94886.94;;;4.84;100.00
11345;BME280;5727;42.600;23.028;2022-12-18T08:31:18;94884.06;;;4.75;100.00
11345;BME280;5727;42.600;23.028;2022-12-18T08:33:47;94887.44;;;4.91;100.00
11345;BME280;5727;42.600;23.028;2022-12-18T08:36:14;94889.50;;;4.94;100.00
11345;BME280;5727;42.600;23.028;2022-12-18T08:38:40;94891.81;;;5.05;100.00
11345;BME280;5727;42.600;23.028;2022-12-18T08:41:10;94892.34;;;5.22;100.00
11345;BME280;5727;42.600;23.028;2022-12-18T08:43:37;94894.38;;;5.30;100.00
11345;BME280;5727;42.600;23.028;2022-12-18T08:46:25;94897.22;;;5.49;100.00
11345;BME280;5727;42.600;23.028;2022-12-18T08:48:53;94897.88;;;5.75;100.00
11345;BME280;5727;42.600;23.028;2022-12-18T08:51:23;94894.19;;;6.01;100.00
11345;BME280;5727;42.600;23.028;2022-12-18T08:53:49;94896.94;;;6.19;100.00
11345;BME280;5727;42.600;23.028;2022-12-18T08:56:16;94895.03;;;6.35;100.00
11345;BME280;5727;42.600;23.028;2022-12-18T08:58:43;94901.50;;;6.42;100.00
11345;BME280;5727;42.600;23.028;2022-12-18T09:01:11;94894.09;;;6.60;100.00
11345;BME280;5727;42.600;23.028;2022-12-18T09:03:40;94899.50;;;6.68;100.00
11345;BME280;5727;42.600;23.028;2022-12-18T09:06:07;94899.53;;;6.63;100.00
11345;BME280;5727;42.600;23.028;2022-12-18T09:08:35;94903.94;;;6.68;100.00
11345;BME280;5727;42.600;23.028;2022-12-18T09:11:03;94903.38;;;6.71;100.00
11345;BME280;5727;42.600;23.028;2022-12-18T09:13:29;94903.06;;;6.77;100.00
11345;BME280;5727;42.600;23.028;2022-12-18T09:15:56;94903.31;;;6.81;100.00
11345;BME280;5727;42.600;23.028;2022-12-18T09:18:23;94902.78;;;6.84;100.00
11345;BME280;5727;42.600;23.028;2022-12-18T09:20:52;94903.00;;;6.87;100.00
11345;BME280;5727;42.600;23.028;2022-12-18T09:23:19;94899.38;;;6.83;100.00
11345;BME280;5727;42.600;23.028;2022-12-18T09:25:46;94904.03;;;6.86;100.00
11345;BME280;5727;42.600;23.028;2022-12-18T09:28:13;94901.16;;;6.88;100.00
11345;BME280;5727;42.600;23.028;2022-12-18T09:30:42;94902.72;;;6.89;100.00
11345;BME280;5727;42.600;23.028;2022-12-18T09:33:10;94903.41;;;6.99;100.00
11345;BME280;5727;42.600;23.028;2022-12-18T09:35:37;94897.16;;;7.00;100.00
11345;BME280;5727;42.600;23.028;2022-12-18T09:38:09;94904.16;;;7.05;100.00
11345;BME280;5727;42.600;23.028;2022-12-18T09:40:42;94914.84;;;7.03;100.00
11345;BME280;5727;42.600;23.028;2022-12-18T09:43:14;94909.22;;;6.91;100.00
11345;BME280;5727;42.600;23.028;2022-12-18T09:45:45;94906.56;;;6.96;100.00
11345;BME280;5727;42.600;23.028;2022-12-18T09:48:18;94899.31;;;6.93;100.00
11345;BME280;5727;42.600;23.028;2022-12-18T09:50:46;94908.56;;;6.76;100.00
11345;BME280;5727;42.600;23.028;2022-12-18T09:53:19;94904.00;;;6.91;100.00
11345;BME280;5727;42.600;23.028;2022-12-18T09:55:48;94906.19;;;6.79;100.00
11345;BME280;5727;42.600;23.028;2022-12-18T09:58:19;94895.63;;;6.94;100.00
11345;BME280;5727;42.600;23.028;2022-12-18T10:00:48;94899.69;;;7.10;100.00
11345;BME280;5727;42.600;23.028;2022-12-18T10:03:17;94890.19;;;7.19;100.00
11345;BME280;5727;42.600;23.028;2022-12-18T10:05:53;94887.50;;;7.29;100.00
11345;BME280;5727;42.600;23.028;2022-12-18T10:08:30;94878.25;;;7.42;100.00
11345;BME280;5727;42.600;23.028;2022-12-18T10:11:08;94891.91;;;7.58;100.00
11345;BME280;5727;42.600;23.028;2022-12-18T10:13:43;94897.78;;;7.68;100.00
11345;BME280;5727;42.600;23.028;2022-12-18T10:16:14;94898.44;;;7.55;100.00
11345;BME280;5727;42.600;23.028;2022-12-18T10:19:00;94895.56;;;7.57;100.00
11345;BME280;5727;42.600;23.028;2022-12-18T10:21:32;94899.56;;;7.49;100.00
11345;BME280;5727;42.600;23.028;2022-12-18T10:24:10;94901.22;;;7.40;100.00
11345;BME280;5727;42.600;23.028;2022-12-18T10:26:38;94896.94;;;7.25;100.00
11345;BME280;5727;42.600;23.028;2022-12-18T10:29:09;94896.78;;;7.40;100.00
11345;BME280;5727;42.600;23.028;2022-12-18T10:31:37;94889.03;;;7.07;100.00
11345;BME280;5727;42.600;23.028;2022-12-18T10:34:07;94890.63;;;6.69;100.00
11345;BME280;5727;42.600;23.028;2022-12-18T10:36:35;94889.69;;;6.89;100.00
11345;BME280;5727;42.600;23.028;2022-12-18T10:39:14;94888.66;;;6.56;100.00
11345;BME280;5727;42.600;23.028;2022-12-18T10:41:42;94879.69;;;6.67;100.00
11345;BME280;5727;42.600;23.028;2022-12-18T10:44:15;94878.31;;;6.80;100.00
11345;BME280;5727;42.600;23.028;2022-12-18T10:46:44;94884.03;;;6.82;100.00
11345;BME280;5727;42.600;23.028;2022-12-18T10:49:21;94880.59;;;6.86;100.00
11345;BME280;5727;42.600;23.028;2022-12-18T10:51:48;94885.72;;;6.96;100.00
11345;BME280;5727;42.600;23.028;2022-12-18T10:54:18;94883.16;;;6.91;100.00
11345;BME280;5727;42.600;23.028;2022-12-18T10:56:47;94893.81;;;6.95;100.00
11345;BME280;5727;42.600;23.028;2022-12-18T10:59:15;94891.13;;;6.71;100.00
11345;BME280;5727;42.600;23.028;2022-12-18T11:01:50;94894.69;;;6.85;100.00
11345;BME280;5727;42.600;23.028;2022-12-18T11:04:20;94894.34;;;6.92;100.00
11345;BME280;5727;42.600;23.028;2022-12-18T11:06:56;94899.88;;;6.85;100.00
11345;BME280;5727;42.600;23.028;2022-12-18T11:09:26;94897.50;;;6.89;100.00
11345;BME280;5727;42.600;23.028;2022-12-18T11:11:55;94907.16;;;6.88;100.00
11345;BME280;5727;42.600;23.028;2022-12-18T11:14:24;94896.38;;;6.66;100.00
11345;BME280;5727;42.600;23.028;2022-12-18T11:16:52;94899.53;;;6.63;100.00
11345;BME280;5727;42.600;23.028;2022-12-18T11:19:32;94907.56;;;6.67;100.00
11345;BME280;5727;42.600;23.028;2022-12-18T11:22:00;94909.44;;;6.61;100.00
11345;BME280;5727;42.600;23.028;2022-12-18T11:24:31;94911.84;;;6.47;100.00
11345;BME280;5727;42.600;23.028;2022-12-18T11:27:00;94915.31;;;6.38;100.00
11345;BME280;5727;42.600;23.028;2022-12-18T11:29:32;94911.97;;;6.32;100.00
11345;BME280;5727;42.600;23.028;2022-12-18T11:32:21;94916.38;;;6.37;100.00
11345;BME280;5727;42.600;23.028;2022-12-18T11:34:53;94911.66;;;6.39;100.00
11345;BME280;5727;42.600;23.028;2022-12-18T11:37:24;94915.56;;;6.41;100.00
11345;BME280;5727;42.600;23.028;2022-12-18T11:39:56;94918.03;;;6.62;100.00
11345;BME280;5727;42.600;23.028;2022-12-18T11:42:30;94917.97;;;6.67;100.00
11345;BME280;5727;42.600;23.028;2022-12-18T11:45:06;94926.69;;;6.91;100.00
11345;BME280;5727;42.600;23.028;2022-12-18T11:47:39;94931.19;;;7.09;100.00
11345;BME280;5727;42.600;23.028;2022-12-18T11:50:13;94922.94;;;7.02;100.00
11345;BME280;5727;42.600;23.028;2022-12-18T11:52:41;94917.19;;;7.05;100.00
11345;BME280;5727;42.600;23.028;2022-12-18T11:55:13;94919.03;;;6.99;100.00
11345;BME280;5727;42.600;23.028;2022-12-18T11:57:49;94911.78;;;6.96;100.00
11345;BME280;5727;42.600;23.028;2022-12-18T12:00:19;94906.06;;;6.94;100.00
11345;BME280;5727;42.600;23.028;2022-12-18T12:03:07;94911.78;;;6.96;100.00
11345;BME280;5727;42.600;23.028;2022-12-18T12:05:51;94910.19;;;7.00;100.00
11345;BME280;5727;42.600;23.028;2022-12-18T12:08:35;94915.53;;;6.85;100.00
11345;BME280;5727;42.600;23.028;2022-12-18T12:11:10;94912.84;;;6.95;100.00
11345;BME280;5727;42.600;23.028;2022-12-18T12:14:01;94912.16;;;7.13;100.00
11345;BME280;5727;42.600;23.028;2022-12-18T12:16:35;94919.28;;;7.03;100.00
11345;BME280;5727;42.600;23.028;2022-12-18T12:19:17;94918.47;;;6.74;100.00
11345;BME280;5727;42.600;23.028;2022-12-18T12:21:50;94918.06;;;6.90;100.00
11345;BME280;5727;42.600;23.028;2022-12-18T12:24:31;94914.00;;;6.79;100.00
11345;BME280;5727;42.600;23.028;2022-12-18T12:27:06;94922.09;;;6.73;100.00
11345;BME280;5727;42.600;23.028;2022-12-18T12:29:46;94922.81;;;6.83;100.00
11345;BME280;5727;42.600;23.028;2022-12-18T12:32:25;94921.13;;;7.02;100.00
11345;BME280;5727;42.600;23.028;2022-12-18T12:35:05;94926.31;;;7.02;100.00
11345;BME280;5727;42.600;23.028;2022-12-18T12:37:43;94920.69;;;6.90;100.00
11345;BME280;5727;42.600;23.028;2022-12-18T12:40:19;94916.31;;;6.86;100.00
11345;BME280;5727;42.600;23.028;2022-12-18T12:42:52;94917.78;;;6.92;100.00
11345;BME280;5727;42.600;23.028;2022-12-18T12:45:41;94925.16;;;6.85;100.00
11345;BME280;5727;42.600;23.028;2022-12-18T12:48:17;94919.50;;;6.78;100.00
11345;BME280;5727;42.600;23.028;2022-12-18T12:50:46;94915.66;;;6.65;100.00
11345;BME280;5727;42.600;23.028;2022-12-18T12:53:22;94917.00;;;6.63;100.00
11345;BME280;5727;42.600;23.028;2022-12-18T12:55:50;94923.59;;;6.84;100.00
11345;BME280;5727;42.600;23.028;2022-12-18T12:58:26;94931.84;;;7.24;100.00
11345;BME280;5727;42.600;23.028;2022-12-18T13:01:07;94936.81;;;7.55;100.00
11345;BME280;5727;42.600;23.028;2022-12-18T13:03:43;94934.50;;;7.48;93.08
11345;BME280;5727;42.600;23.028;2022-12-18T13:06:23;94939.50;;;7.45;91.20
11345;BME280;5727;42.600;23.028;2022-12-18T13:08:55;94956.09;;;7.25;90.23
11345;BME280;5727;42.600;23.028;2022-12-18T13:11:35;94949.72;;;7.07;89.59
11345;BME280;5727;42.600;23.028;2022-12-18T13:14:24;94947.69;;;6.99;93.05
11345;BME280;5727;42.600;23.028;2022-12-18T13:16:51;94946.28;;;6.78;91.23